Time;durP1;ratioP1;P1;durP2;ratioP2;P2;SDS_P1;SDS_P2;PMS_P1;PMS_P2;Temp;Humidity;BMP_temperature;BMP_pressure;BME280_temperature;BME280_humidity;BME280_pressure;Samples;Min_cycle;Max_cycle;Signal;HPM_P1;HPM_P2
2022/02/28 00:01:28;;;;;;;11.73;5.70;;;;;;;-142.75;100.00;79646.22;5009629;28;20026;-68
2022/02/28 00:03:56;;;;;;;12.57;5.32;;;;;;;-142.75;100.00;79658.06;5009782;28;20498;-68
2022/02/28 00:06:22;;;;;;;12.60;5.40;;;;;;;-142.75;100.00;79658.06;5009645;28;20026;-68
2022/02/28 00:08:48;;;;;;;9.27;5.23;;;;;;;-142.75;100.00;79679.72;5008011;28;20548;-69
2022/02/28 00:11:14;;;;;;;12.45;5.68;;;;;;;-142.75;100.00;79669.88;5009631;28;20104;-68
2022/02/28 00:13:39;;;;;;;14.85;6.38;;;;;;;-142.75;100.00;79667.91;5008300;28;20101;-68
2022/02/28 00:16:06;;;;;;;20.77;5.57;;;;;;;-142.75;100.00;79665.94;5008010;28;20033;-68
2022/02/28 00:18:32;;;;;;;11.63;5.73;;;;;;;-142.75;100.00;79681.69;5009293;28;20018;-68
2022/02/28 00:20:58;;;;;;;11.23;5.53;;;;;;;-142.75;100.00;79693.50;5008222;28;20032;-68
2022/02/28 00:23:23;;;;;;;11.65;5.72;;;;;;;-142.75;100.00;79701.38;5009740;28;20013;-68
2022/02/28 00:25:49;;;;;;;10.73;5.57;;;;;;;-142.75;100.00;79705.34;5009261;28;20029;-68
2022/02/28 00:28:14;;;;;;;9.55;5.40;;;;;;;-142.75;100.00;79701.38;5008076;28;20049;-67
2022/02/28 00:30:40;;;;;;;11.70;5.93;;;;;;;-142.75;100.00;79709.28;5013236;28;20083;-67
2022/02/28 00:33:06;;;;;;;19.00;5.80;;;;;;;-142.75;100.00;79715.19;5013457;28;20079;-68
2022/02/28 00:35:31;;;;;;;;;;;;;;;-142.75;100.00;79721.09;5012560;28;20399;-68
2022/02/28 00:37:56;;;;;;;11.80;5.53;;;;;;;-142.75;100.00;79730.94;5011748;28;19914;-68
2022/02/28 00:40:23;;;;;;;12.80;5.65;;;;;;;-142.75;100.00;79730.94;5013062;28;20033;-68
2022/02/28 00:42:48;;;;;;;13.10;6.28;;;;;;;-142.75;100.00;79732.91;5013197;28;20037;-68
2022/02/28 00:45:13;;;;;;;15.23;6.13;;;;;;;-142.75;100.00;79740.78;5013145;28;20026;-67
2022/02/28 00:47:39;;;;;;;11.52;5.53;;;;;;;-142.75;100.00;79748.66;5012980;28;20037;-68
2022/02/28 00:50:06;;;;;;;12.93;5.95;;;;;;;-142.75;100.00;79746.69;5012710;28;20037;-68
2022/02/28 00:52:31;;;;;;;12.43;5.57;;;;;;;-142.75;100.00;79734.88;5011903;28;20133;-68
2022/02/28 00:54:57;;;;;;;11.70;5.80;;;;;;;-142.75;100.00;79742.75;5011682;28;20112;-68
2022/02/28 00:57:22;;;;;;;14.88;5.95;;;;;;;-142.75;100.00;79740.78;5012597;28;20046;-68
2022/02/28 00:59:48;;;;;;;13.50;6.13;;;;;;;-142.75;100.00;79746.69;5013170;28;20022;-68
2022/02/28 01:02:13;;;;;;;14.73;5.70;;;;;;;-142.75;100.00;79744.72;5012928;28;20032;-68
2022/02/28 01:04:39;;;;;;;11.63;5.80;;;;;;;-142.75;100.00;79752.63;5011509;28;20717;-68
2022/02/28 01:07:05;;;;;;;15.48;6.68;;;;;;;-142.75;100.00;79748.66;5012661;28;20025;-68
2022/02/28 01:09:30;;;;;;;11.85;5.82;;;;;;;-142.75;100.00;79760.50;5012439;28;20113;-68
2022/02/28 01:11:56;;;;;;;7.97;4.95;;;;;;;-142.75;100.00;79772.31;5011326;28;20062;-68
2022/02/28 01:14:21;;;;;;;13.35;5.95;;;;;;;-142.75;100.00;79782.16;5012528;28;20024;-68
2022/02/28 01:16:46;;;;;;;11.63;5.75;;;;;;;-142.75;100.00;79784.13;5012542;28;20404;-68
2022/02/28 01:19:12;;;;;;;10.18;5.07;;;;;;;-142.75;100.00;79788.06;5010942;28;20030;-68
2022/02/28 01:21:37;;;;;;;12.43;5.80;;;;;;;-142.75;100.00;79801.88;5012856;28;20104;-68
2022/02/28 01:24:03;;;;;;;14.40;6.22;;;;;;;-142.75;100.00;79799.91;5012345;28;20272;-68
2022/02/28 01:26:28;;;;;;;10.18;5.50;;;;;;;-142.75;100.00;79803.84;5012132;28;20036;-68
2022/02/28 01:28:53;;;;;;;14.32;5.80;;;;;;;-142.75;100.00;79811.72;5012517;28;20464;-68
2022/02/28 01:31:18;;;;;;;11.88;6.15;;;;;;;-142.75;100.00;79821.56;5012340;28;20697;-68
2022/02/28 01:33:44;;;;;;;11.98;5.53;;;;;;;-142.75;100.00;79817.63;5012052;28;20041;-68
2022/02/28 01:36:09;;;;;;;12.00;6.03;;;;;;;-142.75;100.00;79819.59;5012303;28;20061;-68
2022/02/28 01:38:34;;;;;;;13.07;6.10;;;;;;;-142.75;100.00;79831.41;5011953;28;20120;-69
2022/02/28 01:41:00;;;;;;;13.50;5.65;;;;;;;-142.75;100.00;79821.56;5010325;28;20029;-68
2022/02/28 01:43:25;;;;;;;13.98;6.35;;;;;;;-142.75;100.00;79819.59;5012223;28;20451;-68
2022/02/28 01:45:51;;;;;;;13.10;5.83;;;;;;;-142.75;100.00;79831.41;5010768;28;20076;-67
2022/02/28 01:48:16;;;;;;;11.88;5.70;;;;;;;-142.75;100.00;79831.41;5011629;28;20281;-68
2022/02/28 01:50:41;;;;;;;14.82;6.88;;;;;;;-142.75;100.00;79833.38;5012082;28;20037;-68
2022/02/28 01:53:07;;;;;;;11.32;5.80;;;;;;;-142.75;100.00;79833.38;5012128;28;20046;-68
2022/02/28 01:55:32;;;;;;;12.90;5.57;;;;;;;-142.75;100.00;79823.53;5011662;28;20026;-68
2022/02/28 01:57:58;;;;;;;11.05;5.93;;;;;;;-142.75;100.00;79831.41;5011532;28;20365;-68
2022/02/28 02:00:27;;;;;;;10.90;5.88;;;;;;;-142.75;100.00;79835.34;5012253;28;20083;-68
2022/02/28 02:02:53;;;;;;;12.50;5.80;;;;;;;-142.75;100.00;79831.41;5011783;28;20040;-68
2022/02/28 02:05:18;;;;;;;11.73;5.55;;;;;;;-142.75;100.00;79839.28;5011571;28;20596;-67
2022/02/28 02:07:44;;;;;;;11.38;5.68;;;;;;;-142.75;100.00;79851.13;5010192;28;20065;-67
2022/02/28 02:10:11;;;;;;;11.95;6.25;;;;;;;-142.75;100.00;79855.06;5010203;28;20037;-68
2022/02/28 02:12:38;;;;;;;11.33;5.97;;;;;;;-142.75;100.00;79849.16;5011549;28;20055;-68
2022/02/28 02:15:07;;;;;;;10.83;5.57;;;;;;;-142.75;100.00;79859.00;5011395;28;20025;-68
2022/02/28 02:17:32;;;;;;;12.50;5.73;;;;;;;-142.75;100.00;79862.94;5011389;28;20022;-68
2022/02/28 02:19:58;;;;;;;12.30;5.78;;;;;;;-142.75;100.00;79874.75;5011012;28;20369;-68
2022/02/28 02:22:23;;;;;;;13.27;5.53;;;;;;;-142.75;100.00;79874.75;5011379;28;20030;-67
2022/02/28 02:24:50;;;;;;;12.35;5.35;;;;;;;-142.75;100.00;79866.88;4998034;28;20053;-68
2022/02/28 02:27:15;;;;;;;13.87;6.47;;;;;;;-142.75;100.00;79864.91;5044300;22;20132;-73
2022/02/28 02:29:40;;;;;;;12.65;6.03;;;;;;;-142.75;100.00;79874.75;5027883;28;20302;-73
2022/02/28 02:32:16;;;;;;;12.10;6.05;;;;;;;-142.75;100.00;79851.13;5031170;28;20040;-73
2022/02/28 02:34:42;;;;;;;9.83;6.03;;;;;;;-142.75;100.00;79855.06;5030638;28;20025;-73
2022/02/28 02:37:07;;;;;;;16.43;6.23;;;;;;;-142.75;100.00;79849.16;5026379;28;20276;-73
2022/02/28 02:39:33;;;;;;;12.43;6.32;;;;;;;-142.75;100.00;79859.00;5009895;28;20017;-73
2022/02/28 02:41:58;;;;;;;13.68;6.63;;;;;;;-142.75;100.00;79866.88;5014987;28;20529;-74
2022/02/28 02:44:33;;;;;;;11.20;6.57;;;;;;;-142.75;100.00;79864.91;5017027;28;20551;-73
2022/02/28 02:46:59;;;;;;;13.13;7.17;;;;;;;-142.75;100.00;79851.13;5027601;28;20083;-73
2022/02/28 02:49:24;;;;;;;13.23;6.40;;;;;;;-142.75;100.00;79866.88;5025010;28;20053;-73
2022/02/28 02:51:50;;;;;;;14.15;6.18;;;;;;;-142.75;100.00;79855.06;5021682;28;20026;-73
2022/02/28 02:54:16;;;;;;;15.30;6.32;;;;;;;-142.75;100.00;79862.94;5020938;28;20777;-74
2022/02/28 02:56:41;;;;;;;11.38;6.30;;;;;;;-142.75;100.00;79874.75;5026398;28;20546;-73
2022/02/28 02:59:07;;;;;;;13.02;6.70;;;;;;;-142.75;100.00;79874.75;5026711;28;20121;-73
2022/02/28 03:01:32;;;;;;;12.65;6.05;;;;;;;-142.75;100.00;79878.69;5013723;28;20030;-73
2022/02/28 03:03:58;;;;;;;17.17;7.40;;;;;;;-142.75;100.00;79886.56;5025601;28;20063;-73
2022/02/28 03:06:25;;;;;;;13.50;5.93;;;;;;;-142.75;100.00;79888.53;5023801;28;20021;-73
2022/02/28 03:08:50;;;;;;;13.70;6.73;;;;;;;-142.75;100.00;79894.47;5020035;28;20113;-74
2022/02/28 03:11:16;;;;;;;10.27;5.55;;;;;;;-142.75;100.00;79900.38;5025535;28;20113;-73
2022/02/28 03:13:41;;;;;;;11.57;6.20;;;;;;;-142.75;100.00;79896.44;5019229;28;20048;-73
2022/02/28 03:16:07;;;;;;;9.50;5.80;;;;;;;-142.75;100.00;79902.34;5016952;28;20022;-73
2022/02/28 03:18:32;;;;;;;11.80;6.07;;;;;;;-142.75;100.00;79902.34;5024177;28;20973;-74
2022/02/28 03:20:57;;;;;;;13.32;5.97;;;;;;;-142.75;100.00;79898.41;5021860;28;20362;-73
2022/02/28 03:23:24;;;;;;;11.98;6.63;;;;;;;-142.75;100.00;79908.25;5019308;28;20476;-71
2022/02/28 03:25:50;;;;;;;14.37;6.77;;;;;;;-142.75;100.00;79918.09;5030212;28;20029;-73
2022/02/28 03:28:16;;;;;;;11.17;6.57;;;;;;;-142.75;100.00;79914.16;5020022;28;20443;-73
2022/02/28 03:30:42;;;;;;;10.48;5.80;;;;;;;-142.75;100.00;79925.97;5019628;28;20033;-74
2022/02/28 03:33:07;;;;;;;11.15;5.88;;;;;;;-142.75;100.00;79935.84;5028801;28;20029;-73
2022/02/28 03:35:33;;;;;;;12.70;6.00;;;;;;;-142.75;100.00;79941.75;5027131;28;20017;-72
2022/02/28 03:37:58;;;;;;;12.73;6.25;;;;;;;-142.75;100.00;79953.56;5015481;28;20032;-72
2022/02/28 03:40:23;;;;;;;13.07;6.53;;;;;;;-142.75;100.00;79953.56;5016720;28;20538;-73
2022/02/28 03:42:49;;;;;;;14.77;6.55;;;;;;;-142.75;100.00;79957.50;5021659;28;20033;-73
2022/02/28 03:45:14;;;;;;;15.70;6.65;;;;;;;-142.75;100.00;79937.81;5029760;28;20040;-73
2022/02/28 03:47:39;;;;;;;12.82;6.18;;;;;;;-142.75;100.00;79925.97;5024927;28;20435;-73
2022/02/28 03:50:05;;;;;;;13.65;6.10;;;;;;;-142.75;100.00;79927.94;5011817;28;20399;-73
2022/02/28 03:52:31;;;;;;;10.70;5.90;;;;;;;-142.75;100.00;79929.91;5020343;28;20052;-73
2022/02/28 03:54:56;;;;;;;13.23;5.93;;;;;;;-142.75;100.00;79929.91;5018114;28;20033;-73
2022/02/28 03:57:21;;;;;;;12.88;6.18;;;;;;;-142.75;100.00;79925.97;5027894;28;20029;-73
2022/02/28 03:59:47;;;;;;;12.00;5.60;;;;;;;-142.75;100.00;79943.72;5012655;28;20025;-74
2022/02/28 04:02:12;;;;;;;10.50;5.30;;;;;;;-142.75;100.00;79949.63;5024737;28;20029;-74
2022/02/28 04:04:37;;;;;;;11.20;5.75;;;;;;;-142.75;100.00;79953.56;5023709;28;20112;-74
2022/02/28 04:07:04;;;;;;;10.15;5.93;;;;;;;-142.75;100.00;79953.56;5029299;28;20029;-73
2022/02/28 04:09:29;;;;;;;;;;;;;;;-142.75;100.00;79985.09;5017493;28;20049;-73
2022/02/28 04:11:54;;;;;;;18.17;6.33;;;;;;;-142.75;100.00;79989.03;5028918;28;19917;-73
2022/02/28 04:14:20;;;;;;;18.45;6.53;;;;;;;-142.75;100.00;80000.84;5021070;28;20025;-73
2022/02/28 04:16:45;;;;;;;16.83;6.45;;;;;;;-142.75;100.00;79992.97;5028853;28;20029;-74
2022/02/28 04:19:10;;;;;;;14.20;6.20;;;;;;;-142.75;100.00;79992.97;5015188;28;20068;-73
2022/02/28 04:21:35;;;;;;;11.90;6.43;;;;;;;-142.75;100.00;79991.00;5023167;28;20757;-73
2022/02/28 04:24:01;;;;;;;11.63;5.90;;;;;;;-142.75;100.00;79987.06;5017051;28;20275;-73
2022/02/28 04:26:26;;;;;;;13.20;6.60;;;;;;;-142.75;100.00;79979.16;5013826;28;20647;-74
2022/02/28 04:28:51;;;;;;;12.70;6.13;;;;;;;-142.75;100.00;79979.16;5025059;28;20368;-73
2022/02/28 04:31:17;;;;;;;13.88;7.07;;;;;;;-142.75;100.00;79977.19;5022890;28;20030;-73
2022/02/28 04:33:42;;;;;;;13.52;6.20;;;;;;;-142.75;100.00;79973.25;5009668;28;20032;-72
2022/02/28 04:36:07;;;;;;;15.47;6.33;;;;;;;-142.75;100.00;79969.31;5019574;28;20018;-72
2022/02/28 04:38:33;;;;;;;13.65;6.60;;;;;;;-142.75;100.00;79969.31;5020387;28;20260;-73
2022/02/28 04:40:58;;;;;;;13.40;6.07;;;;;;;-142.75;100.00;79961.44;5021841;28;20068;-72
2022/02/28 04:43:23;;;;;;;11.00;5.90;;;;;;;-142.75;100.00;79965.38;5019787;28;20014;-72
2022/02/28 04:45:49;;;;;;;14.13;6.27;;;;;;;-142.75;100.00;79969.31;5020857;28;20443;-73
2022/02/28 04:48:14;;;;;;;13.70;6.10;;;;;;;-142.75;100.00;79977.19;5021154;28;20280;-72
2022/02/28 04:50:39;;;;;;;14.40;5.88;;;;;;;-142.75;100.00;79973.25;5014595;28;20511;-73
2022/02/28 04:53:04;;;;;;;11.88;6.10;;;;;;;-142.75;100.00;79969.31;5018064;28;20036;-72
2022/02/28 04:55:30;;;;;;;12.20;6.07;;;;;;;-142.75;100.00;79967.34;5012875;28;20097;-73
2022/02/28 04:57:55;;;;;;;9.73;5.47;;;;;;;-142.75;100.00;79973.25;5021198;28;20817;-73
2022/02/28 05:00:20;;;;;;;12.95;6.15;;;;;;;-142.75;100.00;79981.16;5023051;28;20472;-74
2022/02/28 05:02:46;;;;;;;13.70;5.95;;;;;;;-142.75;100.00;79977.19;5018833;28;20021;-73
2022/02/28 05:05:11;;;;;;;11.70;6.07;;;;;;;-142.75;100.00;79977.19;5025492;28;20025;-73
2022/02/28 05:07:37;;;;;;;11.55;5.78;;;;;;;-142.75;100.00;79973.25;5019531;28;20022;-73
2022/02/28 05:10:02;;;;;;;11.40;5.72;;;;;;;-142.75;100.00;79969.31;5027726;28;20483;-74
2022/02/28 05:12:28;;;;;;;17.17;6.28;;;;;;;-142.75;100.00;79961.44;5028793;28;20029;-73
2022/02/28 05:14:53;;;;;;;12.48;6.22;;;;;;;-142.75;100.00;79961.44;5029340;28;20476;-73
2022/02/28 05:17:18;;;;;;;13.70;5.77;;;;;;;-142.75;100.00;79973.25;5031668;28;20030;-74
2022/02/28 05:19:43;;;;;;;10.80;5.57;;;;;;;-142.75;100.00;79977.19;5023580;28;20643;-73
2022/02/28 05:22:09;;;;;;;10.55;5.72;;;;;;;-142.75;100.00;79975.22;5032191;28;20031;-72
2022/02/28 05:24:35;;;;;;;14.32;5.03;;;;;;;-142.75;100.00;79977.19;5014103;28;20438;-73
2022/02/28 05:27:01;;;;;;;13.30;5.43;;;;;;;-142.75;100.00;79975.22;5024574;28;20121;-73
2022/02/28 05:29:29;;;;;;;;;;;;;;;-142.75;100.00;79981.16;5021572;28;20387;-73
2022/02/28 05:31:55;;;;;;;11.97;4.83;;;;;;;-142.75;100.00;79989.03;5021924;28;20441;-74
2022/02/28 05:34:21;;;;;;;;;;;;;;;-142.75;100.00;79985.09;5016919;28;20156;-73
2022/02/28 05:36:46;;;;;;;10.33;4.87;;;;;;;-142.75;100.00;79985.09;5015303;28;19945;-73
2022/02/28 05:39:12;;;;;;;10.63;6.07;;;;;;;-142.75;100.00;79991.00;5013458;28;20080;-74
2022/02/28 05:41:37;;;;;;;10.38;5.38;;;;;;;-142.75;100.00;79989.03;5027390;28;20025;-73
2022/02/28 05:44:03;;;;;;;9.43;5.47;;;;;;;-142.75;100.00;79991.00;5032098;28;20057;-73
2022/02/28 05:46:28;;;;;;;12.82;5.35;;;;;;;-142.75;100.00;79991.00;5013725;28;20454;-72
2022/02/28 05:48:53;;;;;;;14.47;6.17;;;;;;;-142.75;100.00;79996.91;5014902;28;20097;-73
2022/02/28 05:51:18;;;;;;;11.57;6.35;;;;;;;-142.75;100.00;79996.91;5031356;28;20294;-73
2022/02/28 05:53:44;;;;;;;9.95;4.95;;;;;;;-142.75;100.00;80000.84;5015534;28;20026;-73
2022/02/28 05:56:09;;;;;;;12.25;5.55;;;;;;;-142.75;100.00;79996.91;5021775;28;20025;-73
2022/02/28 05:58:34;;;;;;;9.23;5.32;;;;;;;-142.75;100.00;79991.00;5019204;28;20026;-74
2022/02/28 06:01:00;;;;;;;11.30;5.57;;;;;;;-142.75;100.00;79996.91;5011491;28;20112;-73
2022/02/28 06:03:25;;;;;;;13.55;5.82;;;;;;;-142.75;100.00;79994.94;5013480;28;20025;-73
2022/02/28 06:05:51;;;;;;;13.70;5.25;;;;;;;-142.75;100.00;79994.94;5012180;28;20026;-73
2022/02/28 06:08:16;;;;;;;11.65;5.43;;;;;;;-142.75;100.00;80002.81;5024250;28;20048;-73
2022/02/28 06:10:42;;;;;;;8.85;5.55;;;;;;;-142.75;100.00;80006.75;5030762;28;20028;-73
2022/02/28 06:13:07;;;;;;;10.75;5.72;;;;;;;-142.75;100.00;80016.59;5018961;28;20021;-72
2022/02/28 06:15:33;;;;;;;14.90;6.73;;;;;;;-142.75;100.00;80016.59;5017913;28;20079;-73
2022/02/28 06:17:59;;;;;;;9.57;5.57;;;;;;;-142.75;100.00;80016.59;5028630;28;20287;-73
2022/02/28 06:20:24;;;;;;;;;;;;;;;-142.75;100.00;80022.50;5018047;28;20041;-73
2022/02/28 06:22:49;;;;;;;11.67;6.00;;;;;;;-142.75;100.00;80028.44;5030030;28;19913;-72
2022/02/28 06:25:15;;;;;;;11.65;5.60;;;;;;;-142.75;100.00;80042.22;5030606;28;20026;-73
2022/02/28 06:27:40;;;;;;;13.93;6.15;;;;;;;-142.75;100.00;80054.03;5017896;28;20108;-73
2022/02/28 06:30:07;;;;;;;14.82;6.70;;;;;;;-142.75;100.00;80061.91;5015939;28;20034;-73
2022/02/28 06:32:34;;;;;;;12.57;6.70;;;;;;;-142.75;100.00;80056.00;5029826;28;20108;-73
2022/02/28 06:35:00;;;;;;;12.60;6.23;;;;;;;-142.75;100.00;80050.09;5025824;28;20030;-73
2022/02/28 06:37:25;;;;;;;11.27;5.97;;;;;;;-142.75;100.00;80036.31;5009761;28;20036;-74
2022/02/28 06:39:50;;;;;;;15.70;6.50;;;;;;;-142.75;100.00;80022.50;5029880;28;20043;-73
2022/02/28 06:42:16;;;;;;;11.02;5.65;;;;;;;-142.75;100.00;80006.75;5018144;28;20315;-73
2022/02/28 06:44:41;;;;;;;12.35;6.38;;;;;;;-142.75;100.00;79992.97;5021548;28;20022;-73
2022/02/28 06:47:07;;;;;;;15.77;5.95;;;;;;;-142.75;100.00;79987.06;5021795;28;20026;-72
2022/02/28 06:49:32;;;;;;;14.35;6.38;;;;;;;-142.75;100.00;79975.22;5027462;28;20095;-73
2022/02/28 06:51:57;;;;;;;13.32;7.22;;;;;;;-142.75;100.00;79965.38;5021930;28;20034;-73
2022/02/28 06:54:22;;;;;;;10.75;5.80;;;;;;;-142.75;100.00;79933.84;5023728;28;20045;-72
2022/02/28 06:56:48;;;;;;;13.60;5.72;;;;;;;-142.75;100.00;79902.34;5027618;28;20479;-71
2022/02/28 06:59:13;;;;;;;13.57;6.20;;;;;;;-142.75;100.00;79884.59;5029181;28;20025;-72
2022/02/28 07:01:39;;;;;;;11.25;5.70;;;;;;;-142.75;100.00;79857.03;5030902;28;20029;-73
2022/02/28 07:04:07;;;;;;;10.87;6.50;;;;;;;-142.75;100.00;79831.41;5013704;28;20084;-73
2022/02/28 07:06:33;;;;;;;15.17;6.87;;;;;;;-142.75;100.00;79805.81;5023802;28;20025;-72
2022/02/28 07:08:58;;;;;;;17.83;10.18;;;;;;;-142.75;100.00;79792.00;5029792;28;20143;-72
2022/02/28 07:11:24;;;;;;;15.20;7.57;;;;;;;-142.75;100.00;79778.22;5029887;28;20030;-73
2022/02/28 07:13:49;;;;;;;19.53;8.83;;;;;;;-142.75;100.00;79748.66;5030145;28;20116;-73
2022/02/28 07:16:15;;;;;;;10.73;6.20;;;;;;;-142.75;100.00;79750.66;5029685;28;20642;-73
2022/02/28 07:18:41;;;;;;;10.37;5.73;;;;;;;-142.75;100.00;79717.16;5020862;28;20030;-71
2022/02/28 07:21:06;;;;;;;9.95;5.70;;;;;;;-142.75;100.00;79736.84;5027417;28;20042;-73
2022/02/28 07:23:31;;;;;;;11.93;5.68;;;;;;;-142.75;100.00;79727.00;5014789;28;20061;-73
2022/02/28 07:25:57;;;;;;;9.60;4.72;;;;;;;-142.75;100.00;79732.91;5029645;28;20053;-73
2022/02/28 07:28:22;;;;;;;10.65;5.93;;;;;;;-142.75;100.00;79756.56;5030146;28;20021;-72
2022/02/28 07:30:47;;;;;;;10.50;5.78;;;;;;;-142.75;100.00;79780.19;5016270;28;20034;-73
2022/02/28 07:33:12;;;;;;;10.48;6.03;;;;;;;-142.75;100.00;79758.53;5010530;28;20026;-72
2022/02/28 07:35:38;;;;;;;11.77;5.93;;;;;;;-142.75;100.00;79750.66;5014227;28;20033;-74
2022/02/28 07:38:03;;;;;;;11.13;6.20;;;;;;;-142.75;100.00;79705.34;5018952;28;20311;-73
2022/02/28 07:40:28;;;;;;;12.45;5.70;;;;;;;-142.75;100.00;79689.56;5019881;28;20095;-73
2022/02/28 07:42:54;;;;;;;11.38;5.65;;;;;;;-142.75;100.00;79646.22;5030219;28;20108;-73
2022/02/28 07:45:21;;;;;;;13.00;5.97;;;;;;;-142.75;100.00;79648.19;5030139;28;20032;-73
2022/02/28 07:47:46;;;;;;;12.43;5.47;;;;;;;-142.75;100.00;79626.53;5029166;28;20830;-73
2022/02/28 07:50:12;;;;;;;12.05;5.93;;;;;;;-142.75;100.00;79559.56;5010298;28;20035;-73
2022/02/28 07:52:37;;;;;;;12.27;5.65;;;;;;;-142.75;100.00;79502.44;5009017;28;20022;-72
2022/02/28 07:55:04;;;;;;;11.93;6.10;;;;;;;-142.75;100.00;79433.47;5028843;28;20031;-72
2022/02/28 07:57:29;;;;;;;12.03;5.97;;;;;;;-142.75;100.00;79403.94;5028591;28;20033;-71
2022/02/28 07:59:56;;;;;;;12.35;5.38;;;;;;;-142.75;100.00;79382.25;5029697;28;20029;-72
2022/02/28 08:02:22;;;;;;;11.60;5.70;;;;;;;-142.75;100.00;79331.03;5029847;28;20028;-72
2022/02/28 08:04:47;;;;;;;10.35;5.50;;;;;;;-142.75;100.00;79262.09;5029851;28;20034;-72
2022/02/28 08:07:12;;;;;;;14.83;5.73;;;;;;;-142.75;100.00;79248.31;5029789;28;20037;-74
2022/02/28 08:09:38;;;;;;;9.70;5.32;;;;;;;-142.75;100.00;79232.56;5029398;28;20303;-74
2022/02/28 08:12:03;;;;;;;7.80;5.05;;;;;;;-142.75;100.00;79252.25;5030066;28;20036;-75
2022/02/28 08:14:29;;;;;;;9.05;5.47;;;;;;;-142.75;100.00;79273.91;5011035;28;20099;-73
2022/02/28 08:16:54;;;;;;;9.77;5.38;;;;;;;-142.75;100.00;79279.84;5028757;28;20028;-73
2022/02/28 08:19:19;;;;;;;10.40;5.80;;;;;;;-142.75;100.00;79307.41;5029303;28;20025;-73
2022/02/28 08:21:45;;;;;;;15.65;5.65;;;;;;;-142.75;100.00;79281.81;5029727;28;20479;-73
2022/02/28 08:24:10;;;;;;;13.25;5.95;;;;;;;-142.75;100.00;79315.28;5029891;28;20037;-73
2022/02/28 08:26:36;;;;;;;12.65;5.82;;;;;;;-142.75;100.00;79281.81;5037991;22;20028;-66
2022/02/28 08:29:02;;;;;;;10.88;5.80;;;;;;;-142.75;100.00;79244.38;4950505;28;20035;-65
2022/02/28 08:31:27;;;;;;;11.98;5.68;;;;;;;-142.75;100.00;79212.84;4950496;28;20031;-68
2022/02/28 08:33:52;;;;;;;10.63;5.50;;;;;;;-142.75;100.00;79189.22;4951639;28;20602;-67
2022/02/28 08:36:18;;;;;;;13.53;6.57;;;;;;;-142.75;100.00;79187.25;4966384;28;20078;-68
2022/02/28 08:38:43;;;;;;;9.15;5.70;;;;;;;-142.75;100.00;79155.72;4950207;28;20019;-68
2022/02/28 08:41:08;;;;;;;9.93;5.45;;;;;;;-142.75;100.00;79199.06;4965749;28;20027;-68
2022/02/28 08:43:34;;;;;;;11.55;5.70;;;;;;;-142.75;100.00;79167.56;4951695;28;20039;-67
2022/02/28 08:46:00;;;;;;;11.23;6.33;;;;;;;-142.75;100.00;79151.78;4951473;28;20031;-67
2022/02/28 08:48:25;;;;;;;8.82;5.32;;;;;;;-142.75;100.00;79071.03;4965592;28;20824;-67
2022/02/28 08:50:50;;;;;;;16.55;6.22;;;;;;;-142.75;100.00;79039.53;4970504;28;20452;-67
2022/02/28 08:53:15;;;;;;;12.07;6.40;;;;;;;-142.75;100.00;78974.53;4973203;28;20023;-68
2022/02/28 08:55:41;;;;;;;8.48;5.40;;;;;;;-142.75;100.00;79008.00;4989356;28;20030;-68
2022/02/28 08:58:06;;;;;;;14.60;5.97;;;;;;;-142.75;100.00;79059.22;4972801;28;20019;-68
2022/02/28 09:00:32;;;;;;;8.05;5.18;;;;;;;-142.75;100.00;79074.97;4962271;28;20041;-68
2022/02/28 09:02:57;;;;;;;8.20;5.10;;;;;;;-142.75;100.00;79096.66;4956539;28;20023;-68
2022/02/28 09:05:22;;;;;;;11.20;5.60;;;;;;;-142.75;100.00;79120.28;4969610;28;20059;-68
2022/02/28 09:07:48;;;;;;;9.70;5.25;;;;;;;-142.75;100.00;79004.06;4971691;28;20019;-68
2022/02/28 09:10:13;;;;;;;10.02;5.85;;;;;;;-142.75;99.43;78984.38;4974117;28;20395;-69
2022/02/28 09:12:39;;;;;;;8.93;5.13;;;;;;;-142.75;97.14;79043.47;4974215;28;20030;-69
2022/02/28 09:15:05;;;;;;;9.57;5.55;;;;;;;-142.75;96.97;79049.38;4973941;28;20026;-68
2022/02/28 09:17:32;;;;;;;12.20;5.60;;;;;;;-142.75;95.41;79047.41;4974220;28;20030;-68
2022/02/28 09:19:58;;;;;;;8.43;5.50;;;;;;;-142.75;98.72;79049.38;4973733;28;20113;-68
2022/02/28 09:22:23;;;;;;;8.65;5.72;;;;;;;-142.75;92.95;79008.00;4974028;28;20123;-68
2022/02/28 09:24:48;;;;;;;10.60;5.57;;;;;;;-142.75;91.71;78998.16;4973890;28;20031;-69
2022/02/28 09:27:13;;;;;;;11.20;5.32;;;;;;;-142.75;88.40;78986.34;4973728;28;20036;-68
2022/02/28 09:29:39;;;;;;;8.17;5.40;;;;;;;-142.75;90.07;78939.06;4973509;28;20034;-68
2022/02/28 09:32:04;;;;;;;10.03;5.73;;;;;;;-142.75;86.89;78944.97;4973920;28;20312;-68
2022/02/28 09:34:30;;;;;;;14.55;5.72;;;;;;;-142.75;85.48;78960.72;4973806;28;20050;-69
2022/02/28 09:36:55;;;;;;;12.30;5.65;;;;;;;-142.75;85.79;78972.56;4973824;28;20039;-69
2022/02/28 09:39:21;;;;;;;12.60;6.63;;;;;;;-142.75;87.39;78917.41;4973411;28;20026;-69
2022/02/28 09:41:47;;;;;;;10.05;5.85;;;;;;;-142.75;83.12;78958.75;4972338;28;20336;-68
2022/02/28 09:44:17;;;;;;;13.05;5.75;;;;;;;-142.75;87.01;78968.63;4973544;28;20485;-68
2022/02/28 09:46:43;;;;;;;10.40;5.47;;;;;;;-142.75;87.51;78909.53;4967680;28;20179;-69
2022/02/28 09:49:09;;;;;;;13.13;6.03;;;;;;;-142.75;86.20;78860.28;4953890;28;20453;-69
2022/02/28 09:51:35;;;;;;;10.37;6.57;;;;;;;-142.75;82.49;78860.28;4958967;28;20291;-69
2022/02/28 09:54:00;;;;;;;8.80;5.88;;;;;;;-142.75;83.84;78876.03;4973439;28;20124;-69
2022/02/28 09:56:26;;;;;;;13.40;5.47;;;;;;;-142.75;82.33;78797.25;4973394;28;20113;-69
2022/02/28 09:58:51;;;;;;;10.00;6.35;;;;;;;-142.75;80.43;78834.69;4973325;28;20019;-69
2022/02/28 10:01:17;;;;;;;9.73;5.72;;;;;;;-142.75;82.04;78818.91;4973116;28;20077;-69
2022/02/28 10:03:42;;;;;;;9.45;6.18;;;;;;;-142.75;80.60;78748.03;4971888;28;20122;-68
2022/02/28 10:06:08;;;;;;;11.37;5.53;;;;;;;-142.75;77.36;78750.00;4972968;28;20081;-68
2022/02/28 10:08:45;;;;;;;15.57;6.47;;;;;;;-142.75;75.60;78688.94;4972749;28;20037;-71
2022/02/28 10:11:26;;;;;;;;;;;;;;;-142.75;73.40;78679.09;4973505;28;20025;-68
2022/02/28 10:13:54;;;;;;;10.80;5.67;;;;;;;-142.75;70.55;78702.72;4971701;28;19914;-68
2022/02/28 10:16:29;;;;;;;8.80;5.53;;;;;;;-142.75;73.51;78698.78;4973022;28;20026;-69
2022/02/28 10:18:54;;;;;;;10.07;6.00;;;;;;;-142.75;74.17;78712.56;4972660;28;20027;-70
2022/02/28 10:21:39;;;;;;;10.20;5.53;;;;;;;-142.75;73.28;78720.44;4972959;28;20027;-70
2022/02/28 10:24:09;;;;;;;9.03;5.30;;;;;;;-142.75;72.16;78659.38;4953795;28;20035;-69
2022/02/28 10:26:39;;;;;;;9.63;5.63;;;;;;;-142.75;71.51;78639.69;4953384;28;20037;-70
2022/02/28 10:29:11;;;;;;;13.27;6.07;;;;;;;-142.75;70.70;78612.13;4967175;28;20042;-69
2022/02/28 10:31:38;;;;;;;10.40;5.77;;;;;;;-142.75;69.10;78625.91;4953505;28;20039;-70
2022/02/28 10:34:15;;;;;;;9.90;6.10;;;;;;;-142.75;69.50;78564.84;4953498;28;20030;-70
2022/02/28 10:36:45;;;;;;;9.55;5.93;;;;;;;-142.75;68.28;78549.09;4952548;28;20122;-69
2022/02/28 10:39:11;;;;;;;12.38;6.35;;;;;;;-142.75;67.78;78488.03;4953019;28;20038;-68
2022/02/28 10:41:39;;;;;;;9.27;5.97;;;;;;;-142.75;65.22;78527.44;4953287;28;20031;-68
2022/02/28 10:44:09;;;;;;;9.13;5.30;;;;;;;-142.75;66.13;78519.56;4970833;28;20501;-69
2022/02/28 10:46:39;;;;;;;9.38;5.35;;;;;;;-142.75;65.77;78474.25;4972079;28;20070;-70
2022/02/28 10:49:16;;;;;;;10.15;5.97;;;;;;;-142.75;65.71;78430.94;4952574;28;20593;-69
2022/02/28 10:51:46;;;;;;;11.52;5.55;;;;;;;-142.75;64.00;78369.88;4952915;28;20023;-69
2022/02/28 10:54:22;;;;;;;10.40;5.80;;;;;;;-142.75;62.07;78381.69;4953124;28;20027;-69
2022/02/28 10:56:48;;;;;;;11.90;5.88;;;;;;;-142.75;59.82;78393.50;4953101;28;20027;-69
2022/02/28 10:59:15;;;;;;;9.15;5.70;;;;;;;-142.75;61.28;78375.78;4952606;28;20129;-70